sensor_id;sensor_type;location;lat;lon;timestamp;P1;durP1;ratioP1;P2;durP2;ratioP2
75139;SDS011;63714;55.812;37.658;2023-02-20T00:00:56;18.98;;;8.65;;
75139;SDS011;63714;55.812;37.658;2023-02-20T00:03:22;19.98;;;8.70;;
75139;SDS011;63714;55.812;37.658;2023-02-20T00:05:47;20.02;;;9.23;;
75139;SDS011;63714;55.812;37.658;2023-02-20T00:08:13;22.27;;;10.05;;
75139;SDS011;63714;55.812;37.658;2023-02-20T00:10:38;19.63;;;9.43;;
75139;SDS011;63714;55.812;37.658;2023-02-20T00:13:04;19.10;;;8.48;;
75139;SDS011;63714;55.812;37.658;2023-02-20T00:15:30;21.45;;;10.20;;
75139;SDS011;63714;55.812;37.658;2023-02-20T00:17:56;20.73;;;9.82;;
75139;SDS011;63714;55.812;37.658;2023-02-20T00:20:22;23.67;;;10.32;;
75139;SDS011;63714;55.812;37.658;2023-02-20T00:22:50;22.83;;;10.27;;
75139;SDS011;63714;55.812;37.658;2023-02-20T00:25:16;20.55;;;8.93;;
75139;SDS011;63714;55.812;37.658;2023-02-20T00:27:43;22.48;;;9.30;;
75139;SDS011;63714;55.812;37.658;2023-02-20T00:30:11;19.85;;;9.27;;
75139;SDS011;63714;55.812;37.658;2023-02-20T00:32:42;20.83;;;9.00;;
75139;SDS011;63714;55.812;37.658;2023-02-20T00:35:10;22.55;;;9.80;;
75139;SDS011;63714;55.812;37.658;2023-02-20T00:37:36;21.15;;;9.38;;
75139;SDS011;63714;55.812;37.658;2023-02-20T00:40:02;23.40;;;10.27;;
75139;SDS011;63714;55.812;37.658;2023-02-20T00:42:29;18.10;;;8.93;;
75139;SDS011;63714;55.812;37.658;2023-02-20T00:44:54;15.30;;;8.15;;
75139;SDS011;63714;55.812;37.658;2023-02-20T00:47:20;18.77;;;9.13;;
75139;SDS011;63714;55.812;37.658;2023-02-20T00:49:46;23.40;;;9.93;;
75139;SDS011;63714;55.812;37.658;2023-02-20T00:52:11;19.70;;;8.98;;
75139;SDS011;63714;55.812;37.658;2023-02-20T00:54:37;18.95;;;8.55;;
75139;SDS011;63714;55.812;37.658;2023-02-20T00:57:02;18.17;;;8.23;;
75139;SDS011;63714;55.812;37.658;2023-02-20T00:59:28;19.88;;;9.57;;
75139;SDS011;63714;55.812;37.658;2023-02-20T01:01:53;18.55;;;8.65;;
75139;SDS011;63714;55.812;37.658;2023-02-20T01:04:19;18.05;;;8.52;;
75139;SDS011;63714;55.812;37.658;2023-02-20T01:06:45;21.33;;;9.23;;
75139;SDS011;63714;55.812;37.658;2023-02-20T01:09:11;16.98;;;8.20;;
75139;SDS011;63714;55.812;37.658;2023-02-20T01:11:37;18.83;;;8.48;;
75139;SDS011;63714;55.812;37.658;2023-02-20T01:14:02;16.77;;;8.27;;
75139;SDS011;63714;55.812;37.658;2023-02-20T01:16:28;18.50;;;8.93;;
75139;SDS011;63714;55.812;37.658;2023-02-20T01:18:54;19.02;;;8.93;;
75139;SDS011;63714;55.812;37.658;2023-02-20T01:21:20;18.33;;;8.30;;
75139;SDS011;63714;55.812;37.658;2023-02-20T01:23:45;19.05;;;8.20;;
75139;SDS011;63714;55.812;37.658;2023-02-20T01:26:11;19.27;;;9.25;;
75139;SDS011;63714;55.812;37.658;2023-02-20T01:28:37;18.52;;;8.20;;
75139;SDS011;63714;55.812;37.658;2023-02-20T01:31:02;18.23;;;8.43;;
75139;SDS011;63714;55.812;37.658;2023-02-20T01:33:28;18.75;;;8.65;;
75139;SDS011;63714;55.812;37.658;2023-02-20T01:35:53;18.80;;;8.68;;
75139;SDS011;63714;55.812;37.658;2023-02-20T01:38:19;19.88;;;7.72;;
75139;SDS011;63714;55.812;37.658;2023-02-20T01:40:48;19.90;;;8.68;;
75139;SDS011;63714;55.812;37.658;2023-02-20T01:45:40;12.00;;;6.38;;
75139;SDS011;63714;55.812;37.658;2023-02-20T01:48:05;19.00;;;7.30;;
75139;SDS011;63714;55.812;37.658;2023-02-20T01:50:34;17.20;;;7.68;;
75139;SDS011;63714;55.812;37.658;2023-02-20T01:53:06;15.30;;;7.32;;
75139;SDS011;63714;55.812;37.658;2023-02-20T01:55:46;16.10;;;7.13;;
75139;SDS011;63714;55.812;37.658;2023-02-20T01:58:19;14.65;;;6.53;;
75139;SDS011;63714;55.812;37.658;2023-02-20T02:00:48;16.80;;;7.20;;
75139;SDS011;63714;55.812;37.658;2023-02-20T02:03:17;13.35;;;6.53;;
75139;SDS011;63714;55.812;37.658;2023-02-20T02:08:47;14.63;;;6.50;;
75139;SDS011;63714;55.812;37.658;2023-02-20T02:12:01;15.68;;;6.20;;
75139;SDS011;63714;55.812;37.658;2023-02-20T02:14:27;14.43;;;6.95;;
75139;SDS011;63714;55.812;37.658;2023-02-20T02:30:56;16.10;;;6.07;;
75139;SDS011;63714;55.812;37.658;2023-02-20T02:38:55;12.75;;;5.75;;
75139;SDS011;63714;55.812;37.658;2023-02-20T02:41:41;15.02;;;5.97;;
75139;SDS011;63714;55.812;37.658;2023-02-20T02:44:16;13.65;;;5.80;;
75139;SDS011;63714;55.812;37.658;2023-02-20T02:46:52;17.20;;;7.50;;
75139;SDS011;63714;55.812;37.658;2023-02-20T02:53:37;13.38;;;6.63;;
75139;SDS011;63714;55.812;37.658;2023-02-20T02:56:03;11.50;;;5.63;;
75139;SDS011;63714;55.812;37.658;2023-02-20T02:58:49;16.52;;;7.70;;
75139;SDS011;63714;55.812;37.658;2023-02-20T03:01:17;12.52;;;6.13;;
75139;SDS011;63714;55.812;37.658;2023-02-20T03:03:46;14.05;;;7.03;;
75139;SDS011;63714;55.812;37.658;2023-02-20T03:08:55;14.45;;;6.40;;
75139;SDS011;63714;55.812;37.658;2023-02-20T03:11:26;12.93;;;6.38;;
75139;SDS011;63714;55.812;37.658;2023-02-20T03:16:47;14.70;;;7.75;;
75139;SDS011;63714;55.812;37.658;2023-02-20T03:19:27;15.20;;;7.82;;
75139;SDS011;63714;55.812;37.658;2023-02-20T03:21:57;12.75;;;5.75;;
75139;SDS011;63714;55.812;37.658;2023-02-20T03:24:26;15.63;;;6.75;;
75139;SDS011;63714;55.812;37.658;2023-02-20T03:26:55;15.38;;;7.30;;
75139;SDS011;63714;55.812;37.658;2023-02-20T03:29:26;14.18;;;6.63;;
75139;SDS011;63714;55.812;37.658;2023-02-20T03:32:04;11.52;;;6.15;;
75139;SDS011;63714;55.812;37.658;2023-02-20T03:34:52;12.82;;;5.80;;
75139;SDS011;63714;55.812;37.658;2023-02-20T03:40:04;12.63;;;5.95;;
75139;SDS011;63714;55.812;37.658;2023-02-20T03:50:35;11.07;;;5.50;;
75139;SDS011;63714;55.812;37.658;2023-02-20T03:53:01;12.82;;;5.82;;
75139;SDS011;63714;55.812;37.658;2023-02-20T03:55:27;12.73;;;5.95;;
75139;SDS011;63714;55.812;37.658;2023-02-20T04:00:57;14.18;;;6.75;;
75139;SDS011;63714;55.812;37.658;2023-02-20T04:03:27;11.40;;;6.35;;
75139;SDS011;63714;55.812;37.658;2023-02-20T04:05:57;14.13;;;6.70;;
75139;SDS011;63714;55.812;37.658;2023-02-20T04:11:18;14.00;;;6.95;;
75139;SDS011;63714;55.812;37.658;2023-02-20T04:13:48;12.18;;;6.25;;
75139;SDS011;63714;55.812;37.658;2023-02-20T04:16:17;13.63;;;7.47;;
75139;SDS011;63714;55.812;37.658;2023-02-20T04:18:44;13.40;;;6.18;;
75139;SDS011;63714;55.812;37.658;2023-02-20T04:21:18;15.35;;;7.28;;
75139;SDS011;63714;55.812;37.658;2023-02-20T04:24:00;15.40;;;6.03;;
75139;SDS011;63714;55.812;37.658;2023-02-20T04:26:47;13.63;;;6.10;;
75139;SDS011;63714;55.812;37.658;2023-02-20T04:29:12;14.10;;;7.13;;
75139;SDS011;63714;55.812;37.658;2023-02-20T04:31:38;12.35;;;7.35;;
75139;SDS011;63714;55.812;37.658;2023-02-20T04:34:04;14.10;;;6.57;;
75139;SDS011;63714;55.812;37.658;2023-02-20T04:36:30;13.52;;;6.05;;
75139;SDS011;63714;55.812;37.658;2023-02-20T04:38:55;15.55;;;7.25;;
75139;SDS011;63714;55.812;37.658;2023-02-20T04:41:21;15.82;;;6.35;;
75139;SDS011;63714;55.812;37.658;2023-02-20T04:43:47;13.77;;;7.25;;
75139;SDS011;63714;55.812;37.658;2023-02-20T04:46:14;12.77;;;5.97;;
75139;SDS011;63714;55.812;37.658;2023-02-20T04:50:48;11.88;;;5.50;;
75139;SDS011;63714;55.812;37.658;2023-02-20T04:59:23;12.20;;;5.25;;
75139;SDS011;63714;55.812;37.658;2023-02-20T05:01:49;10.93;;;5.75;;
75139;SDS011;63714;55.812;37.658;2023-02-20T05:04:17;11.57;;;5.32;;
75139;SDS011;63714;55.812;37.658;2023-02-20T05:06:45;13.38;;;5.53;;
75139;SDS011;63714;55.812;37.658;2023-02-20T05:09:17;12.43;;;5.75;;
75139;SDS011;63714;55.812;37.658;2023-02-20T05:11:43;14.63;;;5.82;;
75139;SDS011;63714;55.812;37.658;2023-02-20T05:14:09;12.52;;;5.50;;
75139;SDS011;63714;55.812;37.658;2023-02-20T05:16:38;13.70;;;5.55;;
75139;SDS011;63714;55.812;37.658;2023-02-20T05:19:05;9.68;;;5.07;;
75139;SDS011;63714;55.812;37.658;2023-02-20T05:21:31;11.25;;;5.63;;
75139;SDS011;63714;55.812;37.658;2023-02-20T05:24:15;14.27;;;6.10;;
75139;SDS011;63714;55.812;37.658;2023-02-20T05:26:41;11.90;;;5.55;;
75139;SDS011;63714;55.812;37.658;2023-02-20T05:29:07;12.18;;;5.75;;
75139;SDS011;63714;55.812;37.658;2023-02-20T05:31:34;9.38;;;5.07;;
75139;SDS011;63714;55.812;37.658;2023-02-20T05:34:00;14.18;;;6.28;;
75139;SDS011;63714;55.812;37.658;2023-02-20T05:36:26;11.68;;;5.60;;
75139;SDS011;63714;55.812;37.658;2023-02-20T05:38:52;11.40;;;5.75;;
75139;SDS011;63714;55.812;37.658;2023-02-20T05:41:17;13.50;;;6.20;;
75139;SDS011;63714;55.812;37.658;2023-02-20T05:43:44;12.45;;;6.20;;
75139;SDS011;63714;55.812;37.658;2023-02-20T05:46:10;10.98;;;5.18;;
75139;SDS011;63714;55.812;37.658;2023-02-20T05:48:36;10.95;;;4.80;;
75139;SDS011;63714;55.812;37.658;2023-02-20T05:51:02;10.85;;;5.75;;
75139;SDS011;63714;55.812;37.658;2023-02-20T05:53:29;10.68;;;5.63;;
75139;SDS011;63714;55.812;37.658;2023-02-20T05:55:55;14.18;;;5.90;;
75139;SDS011;63714;55.812;37.658;2023-02-20T05:58:21;12.93;;;5.82;;
75139;SDS011;63714;55.812;37.658;2023-02-20T06:00:47;9.93;;;4.90;;
75139;SDS011;63714;55.812;37.658;2023-02-20T06:03:14;11.38;;;5.55;;
75139;SDS011;63714;55.812;37.658;2023-02-20T06:05:40;13.10;;;6.05;;
75139;SDS011;63714;55.812;37.658;2023-02-20T06:08:06;12.93;;;5.82;;
75139;SDS011;63714;55.812;37.658;2023-02-20T06:10:31;10.20;;;5.68;;
75139;SDS011;63714;55.812;37.658;2023-02-20T06:12:57;13.38;;;7.07;;
75139;SDS011;63714;55.812;37.658;2023-02-20T06:15:23;9.95;;;5.18;;
75139;SDS011;63714;55.812;37.658;2023-02-20T06:17:49;11.05;;;5.57;;
75139;SDS011;63714;55.812;37.658;2023-02-20T06:20:15;13.00;;;6.03;;
75139;SDS011;63714;55.812;37.658;2023-02-20T06:22:41;11.52;;;5.55;;
75139;SDS011;63714;55.812;37.658;2023-02-20T06:25:06;12.32;;;5.53;;
75139;SDS011;63714;55.812;37.658;2023-02-20T06:27:32;12.60;;;6.25;;
75139;SDS011;63714;55.812;37.658;2023-02-20T06:29:58;13.55;;;6.70;;
75139;SDS011;63714;55.812;37.658;2023-02-20T06:32:23;12.80;;;5.45;;
75139;SDS011;63714;55.812;37.658;2023-02-20T06:34:49;15.23;;;7.15;;
75139;SDS011;63714;55.812;37.658;2023-02-20T06:37:15;14.60;;;5.95;;
75139;SDS011;63714;55.812;37.658;2023-02-20T06:39:41;12.75;;;6.38;;
75139;SDS011;63714;55.812;37.658;2023-02-20T06:42:10;12.68;;;6.32;;
75139;SDS011;63714;55.812;37.658;2023-02-20T06:44:36;13.23;;;6.18;;
75139;SDS011;63714;55.812;37.658;2023-02-20T06:47:02;11.30;;;5.95;;
75139;SDS011;63714;55.812;37.658;2023-02-20T06:49:33;12.82;;;5.20;;
75139;SDS011;63714;55.812;37.658;2023-02-20T06:51:59;11.63;;;5.53;;
75139;SDS011;63714;55.812;37.658;2023-02-20T06:54:25;11.98;;;5.75;;
75139;SDS011;63714;55.812;37.658;2023-02-20T06:56:51;9.93;;;4.90;;
75139;SDS011;63714;55.812;37.658;2023-02-20T06:59:16;12.55;;;5.93;;
75139;SDS011;63714;55.812;37.658;2023-02-20T07:01:42;12.10;;;6.13;;
75139;SDS011;63714;55.812;37.658;2023-02-20T07:05:18;11.68;;;4.65;;
75139;SDS011;63714;55.812;37.658;2023-02-20T07:07:44;14.00;;;6.15;;
75139;SDS011;63714;55.812;37.658;2023-02-20T07:10:10;12.93;;;6.40;;
75139;SDS011;63714;55.812;37.658;2023-02-20T07:12:35;11.70;;;5.72;;
75139;SDS011;63714;55.812;37.658;2023-02-20T07:15:03;10.70;;;4.93;;
75139;SDS011;63714;55.812;37.658;2023-02-20T07:17:32;9.40;;;5.40;;
75139;SDS011;63714;55.812;37.658;2023-02-20T07:19:58;15.43;;;6.60;;
75139;SDS011;63714;55.812;37.658;2023-02-20T07:22:24;15.48;;;6.63;;
75139;SDS011;63714;55.812;37.658;2023-02-20T07:24:53;15.27;;;6.13;;
75139;SDS011;63714;55.812;37.658;2023-02-20T07:27:19;10.82;;;5.75;;
75139;SDS011;63714;55.812;37.658;2023-02-20T07:29:45;11.98;;;5.50;;
75139;SDS011;63714;55.812;37.658;2023-02-20T07:32:13;10.95;;;6.00;;
75139;SDS011;63714;55.812;37.658;2023-02-20T07:34:39;13.57;;;5.88;;
75139;SDS011;63714;55.812;37.658;2023-02-20T07:37:05;14.80;;;6.30;;
75139;SDS011;63714;55.812;37.658;2023-02-20T07:39:31;14.75;;;5.78;;
75139;SDS011;63714;55.812;37.658;2023-02-20T07:41:56;14.63;;;6.35;;
75139;SDS011;63714;55.812;37.658;2023-02-20T07:44:22;12.23;;;5.95;;
75139;SDS011;63714;55.812;37.658;2023-02-20T07:46:47;34.85;;;14.93;;
75139;SDS011;63714;55.812;37.658;2023-02-20T07:49:14;16.50;;;7.07;;
75139;SDS011;63714;55.812;37.658;2023-02-20T07:51:40;12.77;;;6.10;;
75139;SDS011;63714;55.812;37.658;2023-02-20T07:54:05;11.52;;;5.00;;
75139;SDS011;63714;55.812;37.658;2023-02-20T07:56:31;11.25;;;5.25;;
75139;SDS011;63714;55.812;37.658;2023-02-20T07:58:57;12.90;;;6.65;;
75139;SDS011;63714;55.812;37.658;2023-02-20T08:01:22;11.45;;;6.00;;
75139;SDS011;63714;55.812;37.658;2023-02-20T08:03:48;17.23;;;6.95;;
75139;SDS011;63714;55.812;37.658;2023-02-20T08:06:17;13.10;;;6.47;;
75139;SDS011;63714;55.812;37.658;2023-02-20T08:08:47;12.65;;;6.55;;
75139;SDS011;63714;55.812;37.658;2023-02-20T08:11:14;13.20;;;6.22;;
75139;SDS011;63714;55.812;37.658;2023-02-20T08:13:42;13.45;;;6.53;;
75139;SDS011;63714;55.812;37.658;2023-02-20T08:16:08;17.63;;;7.35;;
75139;SDS011;63714;55.812;37.658;2023-02-20T08:18:34;12.07;;;5.97;;
75139;SDS011;63714;55.812;37.658;2023-02-20T08:21:00;14.77;;;6.88;;
75139;SDS011;63714;55.812;37.658;2023-02-20T08:23:26;14.00;;;6.43;;
75139;SDS011;63714;55.812;37.658;2023-02-20T08:25:53;14.90;;;6.65;;
75139;SDS011;63714;55.812;37.658;2023-02-20T08:28:19;12.38;;;6.82;;
75139;SDS011;63714;55.812;37.658;2023-02-20T08:30:46;13.30;;;5.63;;
75139;SDS011;63714;55.812;37.658;2023-02-20T08:33:11;12.27;;;5.82;;
75139;SDS011;63714;55.812;37.658;2023-02-20T08:35:37;14.70;;;6.35;;
75139;SDS011;63714;55.812;37.658;2023-02-20T08:38:05;10.93;;;4.93;;
75139;SDS011;63714;55.812;37.658;2023-02-20T08:40:45;12.63;;;6.05;;
75139;SDS011;63714;55.812;37.658;2023-02-20T08:43:11;12.95;;;6.50;;
75139;SDS011;63714;55.812;37.658;2023-02-20T08:45:41;12.57;;;6.10;;
75139;SDS011;63714;55.812;37.658;2023-02-20T08:48:06;12.95;;;6.20;;
75139;SDS011;63714;55.812;37.658;2023-02-20T08:50:32;14.07;;;6.75;;
75139;SDS011;63714;55.812;37.658;2023-02-20T08:52:57;15.70;;;7.03;;
75139;SDS011;63714;55.812;37.658;2023-02-20T08:55:24;15.15;;;7.45;;
75139;SDS011;63714;55.812;37.658;2023-02-20T08:57:49;13.80;;;7.03;;
75139;SDS011;63714;55.812;37.658;2023-02-20T09:00:15;12.82;;;6.60;;
75139;SDS011;63714;55.812;37.658;2023-02-20T09:02:43;14.15;;;7.07;;
75139;SDS011;63714;55.812;37.658;2023-02-20T09:05:10;13.55;;;6.22;;
75139;SDS011;63714;55.812;37.658;2023-02-20T09:07:36;14.00;;;6.88;;
75139;SDS011;63714;55.812;37.658;2023-02-20T09:10:02;15.32;;;8.27;;
75139;SDS011;63714;55.812;37.658;2023-02-20T09:12:28;14.40;;;7.28;;
75139;SDS011;63714;55.812;37.658;2023-02-20T09:14:55;15.23;;;7.68;;
75139;SDS011;63714;55.812;37.658;2023-02-20T09:17:20;17.83;;;8.35;;
75139;SDS011;63714;55.812;37.658;2023-02-20T09:19:46;16.60;;;7.40;;
75139;SDS011;63714;55.812;37.658;2023-02-20T09:22:11;15.07;;;7.85;;
75139;SDS011;63714;55.812;37.658;2023-02-20T09:24:37;18.13;;;8.95;;
75139;SDS011;63714;55.812;37.658;2023-02-20T09:27:03;20.42;;;8.85;;
75139;SDS011;63714;55.812;37.658;2023-02-20T09:29:33;15.27;;;8.02;;
75139;SDS011;63714;55.812;37.658;2023-02-20T09:32:01;16.80;;;8.35;;
75139;SDS011;63714;55.812;37.658;2023-02-20T09:34:26;16.75;;;9.05;;
75139;SDS011;63714;55.812;37.658;2023-02-20T09:36:52;13.65;;;6.72;;
75139;SDS011;63714;55.812;37.658;2023-02-20T09:39:17;18.42;;;8.13;;
75139;SDS011;63714;55.812;37.658;2023-02-20T09:46:55;23.80;;;8.65;;
75139;SDS011;63714;55.812;37.658;2023-02-20T09:49:30;17.75;;;8.48;;
75139;SDS011;63714;55.812;37.658;2023-02-20T09:51:59;16.58;;;6.82;;
75139;SDS011;63714;55.812;37.658;2023-02-20T09:54:31;18.77;;;9.00;;
75139;SDS011;63714;55.812;37.658;2023-02-20T09:57:04;18.70;;;8.55;;
75139;SDS011;63714;55.812;37.658;2023-02-20T09:59:43;17.55;;;8.35;;
75139;SDS011;63714;55.812;37.658;2023-02-20T10:02:22;19.17;;;9.50;;
75139;SDS011;63714;55.812;37.658;2023-02-20T10:04:53;17.90;;;9.32;;
75139;SDS011;63714;55.812;37.658;2023-02-20T10:07:30;17.67;;;8.15;;
75139;SDS011;63714;55.812;37.658;2023-02-20T10:10:25;19.83;;;9.23;;
75139;SDS011;63714;55.812;37.658;2023-02-20T10:26:31;20.38;;;8.90;;
75139;SDS011;63714;55.812;37.658;2023-02-20T10:29:20;18.23;;;8.90;;
75139;SDS011;63714;55.812;37.658;2023-02-20T10:31:57;20.52;;;8.55;;
75139;SDS011;63714;55.812;37.658;2023-02-20T10:34:28;21.77;;;9.75;;
75139;SDS011;63714;55.812;37.658;2023-02-20T10:37:03;17.50;;;8.13;;
75139;SDS011;63714;55.812;37.658;2023-02-20T10:39:35;17.02;;;8.27;;
75139;SDS011;63714;55.812;37.658;2023-02-20T10:44:40;18.05;;;9.23;;
75139;SDS011;63714;55.812;37.658;2023-02-20T10:47:45;18.02;;;8.52;;
75139;SDS011;63714;55.812;37.658;2023-02-20T10:55:48;16.58;;;7.43;;
75139;SDS011;63714;55.812;37.658;2023-02-20T11:00:47;15.88;;;7.55;;
75139;SDS011;63714;55.812;37.658;2023-02-20T11:03:19;15.88;;;8.82;;
75139;SDS011;63714;55.812;37.658;2023-02-20T11:05:50;15.70;;;8.27;;
75139;SDS011;63714;55.812;37.658;2023-02-20T11:08:19;18.33;;;8.43;;
75139;SDS011;63714;55.812;37.658;2023-02-20T11:10:47;16.27;;;7.32;;
75139;SDS011;63714;55.812;37.658;2023-02-20T11:13:14;14.88;;;7.20;;
75139;SDS011;63714;55.812;37.658;2023-02-20T11:15:44;18.92;;;8.02;;
75139;SDS011;63714;55.812;37.658;2023-02-20T11:18:19;15.07;;;8.02;;
75139;SDS011;63714;55.812;37.658;2023-02-20T11:20:50;18.20;;;7.90;;
75139;SDS011;63714;55.812;37.658;2023-02-20T11:25:55;16.48;;;7.72;;
75139;SDS011;63714;55.812;37.658;2023-02-20T11:29:01;14.63;;;7.65;;
75139;SDS011;63714;55.812;37.658;2023-02-20T11:31:26;14.65;;;7.85;;
75139;SDS011;63714;55.812;37.658;2023-02-20T11:33:53;18.58;;;8.95;;
75139;SDS011;63714;55.812;37.658;2023-02-20T11:36:31;18.40;;;8.05;;
75139;SDS011;63714;55.812;37.658;2023-02-20T11:39:11;18.42;;;8.73;;
75139;SDS011;63714;55.812;37.658;2023-02-20T11:41:43;17.17;;;7.60;;
75139;SDS011;63714;55.812;37.658;2023-02-20T11:46:34;22.25;;;9.48;;
75139;SDS011;63714;55.812;37.658;2023-02-20T12:01:54;17.17;;;7.80;;
75139;SDS011;63714;55.812;37.658;2023-02-20T12:07:33;13.82;;;6.85;;
75139;SDS011;63714;55.812;37.658;2023-02-20T12:10:04;16.77;;;7.65;;
75139;SDS011;63714;55.812;37.658;2023-02-20T12:12:34;16.70;;;8.20;;
75139;SDS011;63714;55.812;37.658;2023-02-20T12:14:59;15.10;;;7.15;;
75139;SDS011;63714;55.812;37.658;2023-02-20T12:20:16;16.08;;;8.60;;
75139;SDS011;63714;55.812;37.658;2023-02-20T12:22:46;15.30;;;7.53;;
75139;SDS011;63714;55.812;37.658;2023-02-20T12:26:00;14.65;;;6.80;;
75139;SDS011;63714;55.812;37.658;2023-02-20T12:34:37;15.63;;;7.57;;
75139;SDS011;63714;55.812;37.658;2023-02-20T12:42:48;14.95;;;7.00;;
75139;SDS011;63714;55.812;37.658;2023-02-20T12:48:35;17.10;;;7.38;;
75139;SDS011;63714;55.812;37.658;2023-02-20T12:59:30;15.98;;;7.28;;
75139;SDS011;63714;55.812;37.658;2023-02-20T13:02:11;20.88;;;9.93;;
75139;SDS011;63714;55.812;37.658;2023-02-20T13:04:56;16.30;;;7.22;;
75139;SDS011;63714;55.812;37.658;2023-02-20T13:07:29;12.98;;;6.32;;
75139;SDS011;63714;55.812;37.658;2023-02-20T13:10:10;18.58;;;7.38;;
75139;SDS011;63714;55.812;37.658;2023-02-20T13:12:38;14.32;;;6.38;;
75139;SDS011;63714;55.812;37.658;2023-02-20T13:18:11;18.52;;;8.52;;
75139;SDS011;63714;55.812;37.658;2023-02-20T13:20:57;16.00;;;6.85;;
75139;SDS011;63714;55.812;37.658;2023-02-20T13:23:29;18.42;;;7.28;;
75139;SDS011;63714;55.812;37.658;2023-02-20T13:25:56;16.98;;;7.80;;
75139;SDS011;63714;55.812;37.658;2023-02-20T13:28:36;17.42;;;7.78;;
75139;SDS011;63714;55.812;37.658;2023-02-20T13:42:02;17.90;;;7.80;;
75139;SDS011;63714;55.812;37.658;2023-02-20T14:00:35;18.60;;;7.32;;
75139;SDS011;63714;55.812;37.658;2023-02-20T14:03:28;17.77;;;7.72;;
75139;SDS011;63714;55.812;37.658;2023-02-20T14:08:40;16.65;;;7.60;;
75139;SDS011;63714;55.812;37.658;2023-02-20T14:13:38;15.32;;;7.07;;
75139;SDS011;63714;55.812;37.658;2023-02-20T14:16:27;17.90;;;7.38;;
75139;SDS011;63714;55.812;37.658;2023-02-20T14:18:59;16.95;;;8.43;;
75139;SDS011;63714;55.812;37.658;2023-02-20T14:21:32;22.42;;;8.07;;
75139;SDS011;63714;55.812;37.658;2023-02-20T14:26:57;16.80;;;7.53;;
75139;SDS011;63714;55.812;37.658;2023-02-20T14:31:50;16.45;;;7.15;;
75139;SDS011;63714;55.812;37.658;2023-02-20T14:34:25;19.70;;;8.75;;
75139;SDS011;63714;55.812;37.658;2023-02-20T14:42:26;20.10;;;9.30;;
75139;SDS011;63714;55.812;37.658;2023-02-20T14:45:03;18.55;;;8.57;;
75139;SDS011;63714;55.812;37.658;2023-02-20T14:50:13;18.30;;;9.27;;
75139;SDS011;63714;55.812;37.658;2023-02-20T14:52:59;18.20;;;9.32;;
75139;SDS011;63714;55.812;37.658;2023-02-20T14:55:38;20.23;;;9.40;;
75139;SDS011;63714;55.812;37.658;2023-02-20T14:58:34;20.77;;;8.95;;
75139;SDS011;63714;55.812;37.658;2023-02-20T15:01:12;17.80;;;8.50;;
75139;SDS011;63714;55.812;37.658;2023-02-20T15:06:35;21.77;;;8.85;;
75139;SDS011;63714;55.812;37.658;2023-02-20T15:09:03;21.35;;;8.57;;
75139;SDS011;63714;55.812;37.658;2023-02-20T15:11:30;20.52;;;9.40;;
75139;SDS011;63714;55.812;37.658;2023-02-20T15:13:57;21.25;;;9.70;;
75139;SDS011;63714;55.812;37.658;2023-02-20T15:16:30;20.98;;;10.07;;
75139;SDS011;63714;55.812;37.658;2023-02-20T15:18:57;22.95;;;9.90;;
75139;SDS011;63714;55.812;37.658;2023-02-20T15:21:35;21.30;;;10.05;;
75139;SDS011;63714;55.812;37.658;2023-02-20T15:24:13;25.67;;;9.98;;
75139;SDS011;63714;55.812;37.658;2023-02-20T15:27:11;22.25;;;9.45;;
75139;SDS011;63714;55.812;37.658;2023-02-20T15:29:47;21.08;;;9.45;;
75139;SDS011;63714;55.812;37.658;2023-02-20T15:32:32;21.52;;;9.25;;
75139;SDS011;63714;55.812;37.658;2023-02-20T15:34:58;19.38;;;8.85;;
75139;SDS011;63714;55.812;37.658;2023-02-20T15:37:31;22.40;;;9.05;;
75139;SDS011;63714;55.812;37.658;2023-02-20T15:40:09;22.98;;;9.82;;
75139;SDS011;63714;55.812;37.658;2023-02-20T15:45:11;24.50;;;9.80;;
75139;SDS011;63714;55.812;37.658;2023-02-20T15:47:38;22.83;;;9.80;;
75139;SDS011;63714;55.812;37.658;2023-02-20T15:50:04;20.33;;;9.90;;
75139;SDS011;63714;55.812;37.658;2023-02-20T15:52:30;22.00;;;9.18;;
75139;SDS011;63714;55.812;37.658;2023-02-20T15:54:58;25.60;;;10.85;;
75139;SDS011;63714;55.812;37.658;2023-02-20T15:57:26;18.73;;;9.45;;
75139;SDS011;63714;55.812;37.658;2023-02-20T15:59:51;22.05;;;10.65;;
75139;SDS011;63714;55.812;37.658;2023-02-20T16:02:19;22.08;;;9.35;;
75139;SDS011;63714;55.812;37.658;2023-02-20T16:04:47;18.25;;;8.35;;
75139;SDS011;63714;55.812;37.658;2023-02-20T16:07:14;22.23;;;8.57;;
75139;SDS011;63714;55.812;37.658;2023-02-20T16:09:41;21.58;;;9.73;;
75139;SDS011;63714;55.812;37.658;2023-02-20T16:12:09;21.45;;;8.82;;
75139;SDS011;63714;55.812;37.658;2023-02-20T16:14:41;22.05;;;10.30;;
75139;SDS011;63714;55.812;37.658;2023-02-20T16:17:08;22.38;;;9.73;;
75139;SDS011;63714;55.812;37.658;2023-02-20T16:19:40;23.73;;;10.38;;
75139;SDS011;63714;55.812;37.658;2023-02-20T16:22:05;23.80;;;9.50;;
75139;SDS011;63714;55.812;37.658;2023-02-20T16:24:32;24.45;;;10.43;;
75139;SDS011;63714;55.812;37.658;2023-02-20T16:27:00;25.13;;;11.30;;
75139;SDS011;63714;55.812;37.658;2023-02-20T16:29:33;30.35;;;9.65;;
75139;SDS011;63714;55.812;37.658;2023-02-20T16:34:26;22.02;;;10.15;;
75139;SDS011;63714;55.812;37.658;2023-02-20T16:36:55;22.02;;;9.48;;
75139;SDS011;63714;55.812;37.658;2023-02-20T16:39:21;22.25;;;9.13;;
75139;SDS011;63714;55.812;37.658;2023-02-20T16:41:47;23.13;;;10.77;;
75139;SDS011;63714;55.812;37.658;2023-02-20T16:44:13;21.33;;;9.77;;
75139;SDS011;63714;55.812;37.658;2023-02-20T16:46:46;20.38;;;8.60;;
75139;SDS011;63714;55.812;37.658;2023-02-20T16:49:12;22.05;;;9.30;;
75139;SDS011;63714;55.812;37.658;2023-02-20T16:51:39;23.52;;;8.98;;
75139;SDS011;63714;55.812;37.658;2023-02-20T16:54:12;21.58;;;9.23;;
75139;SDS011;63714;55.812;37.658;2023-02-20T16:56:38;21.73;;;10.23;;
75139;SDS011;63714;55.812;37.658;2023-02-20T16:59:04;21.75;;;10.05;;
75139;SDS011;63714;55.812;37.658;2023-02-20T17:01:30;22.77;;;9.65;;
75139;SDS011;63714;55.812;37.658;2023-02-20T17:03:57;26.77;;;11.48;;
75139;SDS011;63714;55.812;37.658;2023-02-20T17:06:22;22.88;;;9.02;;
75139;SDS011;63714;55.812;37.658;2023-02-20T17:08:57;27.45;;;8.98;;
75139;SDS011;63714;55.812;37.658;2023-02-20T17:11:25;28.45;;;10.20;;
75139;SDS011;63714;55.812;37.658;2023-02-20T17:13:50;23.20;;;9.57;;
75139;SDS011;63714;55.812;37.658;2023-02-20T17:16:16;24.77;;;10.25;;
75139;SDS011;63714;55.812;37.658;2023-02-20T17:18:42;23.52;;;9.32;;
75139;SDS011;63714;55.812;37.658;2023-02-20T17:21:08;28.02;;;11.15;;
75139;SDS011;63714;55.812;37.658;2023-02-20T17:23:34;25.27;;;11.82;;
75139;SDS011;63714;55.812;37.658;2023-02-20T17:26:00;23.60;;;10.48;;
75139;SDS011;63714;55.812;37.658;2023-02-20T17:28:25;24.77;;;10.60;;
75139;SDS011;63714;55.812;37.658;2023-02-20T17:30:51;25.45;;;10.32;;
75139;SDS011;63714;55.812;37.658;2023-02-20T17:33:21;27.50;;;10.75;;
75139;SDS011;63714;55.812;37.658;2023-02-20T17:35:48;25.05;;;10.50;;
75139;SDS011;63714;55.812;37.658;2023-02-20T17:38:14;25.33;;;9.45;;
75139;SDS011;63714;55.812;37.658;2023-02-20T17:40:40;21.52;;;9.52;;
75139;SDS011;63714;55.812;37.658;2023-02-20T17:43:05;26.10;;;9.20;;
75139;SDS011;63714;55.812;37.658;2023-02-20T17:45:31;23.20;;;10.57;;
75139;SDS011;63714;55.812;37.658;2023-02-20T17:47:57;22.10;;;9.35;;